BAW472M EGLL-LEBL
Flight info
| Callsign | BAW472M |
|---|---|
| Flight time | N/A |
| Altitude | 35000 |
| Route | MODMI1J MODMI M185 MID L151 SITET UN859 SOPIL DCT BALAN DCT EVPOK DCT NARAK DCT GAI DCT LOMRA DCT ROCAN DCT PUMAL PUMAL1Z |
| Aircraft | A321/M-SDE3/2105 |
Departure
| Time | 2026-05-06 09:11 |
|---|---|
| Airport | London Heathrow Airport (EGLL) |
Arrival
| Time | N/A |
|---|---|
| Airport | Josep Tarradellas Barcelona-El Prat Airport (LEBL) |
| Time | Latitude | Longitude | Altitude | Speed | Heading |
|---|---|---|---|---|---|
| 2026-05-06 08:38 | 51.46917 | -0.47712 | 80 ft | 0 kts | 90° |
| 2026-05-06 09:02 | 51.46917 | -0.47725 | 80 ft | 2 kts | 90° |
| 2026-05-06 09:03 | 51.46917 | -0.47748 | 80 ft | 2 kts | 90° |
| 2026-05-06 09:03 | 51.46917 | -0.47772 | 80 ft | 2 kts | 90° |
| 2026-05-06 09:03 | 51.46917 | -0.47795 | 80 ft | 2 kts | 90° |
| 2026-05-06 09:03 | 51.46917 | -0.47818 | 80 ft | 2 kts | 90° |
| 2026-05-06 09:04 | 51.46919 | -0.47842 | 80 ft | 2 kts | 118° |
| 2026-05-06 09:04 | 51.46928 | -0.47860 | 80 ft | 2 kts | 144° |
| 2026-05-06 09:04 | 51.46941 | -0.47870 | 80 ft | 2 kts | 172° |
| 2026-05-06 09:04 | 51.46952 | -0.47870 | 80 ft | 0 kts | 186° |
| 2026-05-06 09:05 | 51.46954 | -0.47870 | 80 ft | 0 kts | 184° |
| 2026-05-06 09:07 | 51.46934 | -0.47869 | 80 ft | 5 kts | 179° |
| 2026-05-06 09:07 | 51.46873 | -0.47869 | 80 ft | 11 kts | 180° |
| 2026-05-06 09:08 | 51.46786 | -0.47868 | 80 ft | 10 kts | 180° |
| 2026-05-06 09:08 | 51.46739 | -0.47919 | 80 ft | 10 kts | 264° |
| 2026-05-06 09:08 | 51.46742 | -0.48060 | 80 ft | 15 kts | 270° |
| 2026-05-06 09:08 | 51.46742 | -0.48259 | 78 ft | 20 kts | 270° |
| 2026-05-06 09:09 | 51.46741 | -0.48504 | 76 ft | 22 kts | 270° |
| 2026-05-06 09:09 | 51.46739 | -0.48697 | 76 ft | 11 kts | 258° |
| 2026-05-06 09:09 | 51.46674 | -0.48748 | 76 ft | 12 kts | 181° |
| 2026-05-06 09:09 | 51.46584 | -0.48773 | 76 ft | 13 kts | 196° |
| 2026-05-06 09:10 | 51.46490 | -0.48759 | 76 ft | 14 kts | 138° |
| 2026-05-06 09:10 | 51.46468 | -0.48608 | 76 ft | 15 kts | 84° |
| 2026-05-06 09:10 | 51.46478 | -0.48230 | 77 ft | 70 kts | 91° |
| 2026-05-06 09:10 | 51.46484 | -0.47023 | 77 ft | 143 kts | 89° |
| 2026-05-06 09:11 | 51.46492 | -0.45190 | 351 ft | 178 kts | 88° |
| 2026-05-06 09:11 | 51.46446 | -0.43188 | 974 ft | 181 kts | 89° |
| 2026-05-06 09:11 | 51.46354 | -0.41222 | 1569 ft | 183 kts | 94° |
| 2026-05-06 09:11 | 51.45859 | -0.39380 | 2185 ft | 188 kts | 123° |
| 2026-05-06 09:12 | 51.44913 | -0.38019 | 2850 ft | 186 kts | 141° |
| 2026-05-06 09:12 | 51.43795 | -0.37079 | 3376 ft | 193 kts | 157° |
| 2026-05-06 09:12 | 51.42480 | -0.36397 | 3717 ft | 209 kts | 161° |
| 2026-05-06 09:12 | 51.41024 | -0.35694 | 4069 ft | 226 kts | 163° |
| 2026-05-06 09:13 | 51.39413 | -0.35503 | 4371 ft | 246 kts | 191° |
| 2026-05-06 09:13 | 51.37772 | -0.36561 | 4711 ft | 265 kts | 211° |
| 2026-05-06 09:13 | 51.36155 | -0.38095 | 5207 ft | 280 kts | 213° |
| 2026-05-06 09:13 | 51.34470 | -0.39656 | 5744 ft | 283 kts | 211° |
| 2026-05-06 09:14 | 51.32732 | -0.41143 | 5998 ft | 283 kts | 210° |
| 2026-05-06 09:14 | 51.30976 | -0.42560 | 6491 ft | 284 kts | 209° |
| 2026-05-06 09:14 | 51.29199 | -0.43969 | 7204 ft | 290 kts | 209° |
| 2026-05-06 09:14 | 51.27398 | -0.45386 | 8127 ft | 290 kts | 208° |
| 2026-05-06 09:15 | 51.25606 | -0.46813 | 8972 ft | 292 kts | 208° |
| 2026-05-06 09:15 | 51.23790 | -0.48263 | 9773 ft | 295 kts | 207° |
| 2026-05-06 09:15 | 51.21816 | -0.49210 | 10442 ft | 304 kts | 184° |
| 2026-05-06 09:15 | 51.19701 | -0.48742 | 10850 ft | 319 kts | 166° |
| 2026-05-06 09:16 | 51.17501 | -0.47767 | 11228 ft | 336 kts | 165° |
| 2026-05-06 09:16 | 51.15220 | -0.46721 | 11822 ft | 344 kts | 164° |
| 2026-05-06 09:16 | 51.12909 | -0.45660 | 12583 ft | 346 kts | 164° |
| 2026-05-06 09:16 | 51.10601 | -0.44603 | 13324 ft | 348 kts | 165° |
| 2026-05-06 09:17 | 51.08282 | -0.43547 | 14034 ft | 351 kts | 165° |
| 2026-05-06 09:17 | 51.05961 | -0.42493 | 14724 ft | 353 kts | 165° |
| 2026-05-06 09:17 | 51.03991 | -0.41602 | 15284 ft | 356 kts | 165° |
| 2026-05-06 09:17 | 51.01586 | -0.40515 | 15961 ft | 359 kts | 165° |
| 2026-05-06 09:18 | 50.99203 | -0.39440 | 16600 ft | 362 kts | 165° |
| 2026-05-06 09:18 | 50.96782 | -0.38349 | 17235 ft | 365 kts | 165° |
| 2026-05-06 09:18 | 50.94330 | -0.37245 | 17853 ft | 368 kts | 165° |
| 2026-05-06 09:18 | 50.91861 | -0.36135 | 18452 ft | 372 kts | 165° |
| 2026-05-06 09:19 | 50.89354 | -0.35009 | 19049 ft | 375 kts | 165° |
| 2026-05-06 09:19 | 50.86858 | -0.33891 | 19636 ft | 377 kts | 165° |
| 2026-05-06 09:19 | 50.84312 | -0.32751 | 20223 ft | 380 kts | 165° |
| 2026-05-06 09:19 | 50.81778 | -0.31618 | 20783 ft | 382 kts | 165° |
| 2026-05-06 09:20 | 50.79222 | -0.30475 | 21329 ft | 385 kts | 165° |
| 2026-05-06 09:20 | 50.76644 | -0.29324 | 21871 ft | 387 kts | 166° |